sensor_id;sensor_type;location;lat;lon;timestamp;P1;durP1;ratioP1;P2;durP2;ratioP2
19599;SDS011;9947;57.722;12.012;2022-09-29T00:00:09;3.60;;;3.00;;
19599;SDS011;9947;57.722;12.012;2022-09-29T00:02:37;3.10;;;2.70;;
19599;SDS011;9947;57.722;12.012;2022-09-29T00:05:06;3.00;;;2.70;;
19599;SDS011;9947;57.722;12.012;2022-09-29T00:07:34;5.00;;;2.70;;
19599;SDS011;9947;57.722;12.012;2022-09-29T00:10:00;2.67;;;2.40;;
19599;SDS011;9947;57.722;12.012;2022-09-29T00:12:29;2.87;;;2.67;;
19599;SDS011;9947;57.722;12.012;2022-09-29T00:15:01;2.80;;;2.60;;
19599;SDS011;9947;57.722;12.012;2022-09-29T00:17:28;3.80;;;2.80;;
19599;SDS011;9947;57.722;12.012;2022-09-29T00:19:55;7.77;;;2.67;;
19599;SDS011;9947;57.722;12.012;2022-09-29T00:22:23;3.47;;;2.47;;
19599;SDS011;9947;57.722;12.012;2022-09-29T00:24:50;3.90;;;3.07;;
19599;SDS011;9947;57.722;12.012;2022-09-29T00:27:17;3.20;;;2.60;;
19599;SDS011;9947;57.722;12.012;2022-09-29T00:29:44;3.93;;;2.73;;
19599;SDS011;9947;57.722;12.012;2022-09-29T00:32:12;6.43;;;2.70;;
19599;SDS011;9947;57.722;12.012;2022-09-29T00:34:39;3.67;;;2.90;;
19599;SDS011;9947;57.722;12.012;2022-09-29T00:37:06;3.60;;;2.47;;
19599;SDS011;9947;57.722;12.012;2022-09-29T00:39:34;5.80;;;2.90;;
19599;SDS011;9947;57.722;12.012;2022-09-29T00:42:01;2.80;;;2.60;;
19599;SDS011;9947;57.722;12.012;2022-09-29T00:47:27;3.77;;;2.90;;
19599;SDS011;9947;57.722;12.012;2022-09-29T00:49:57;3.00;;;2.70;;
19599;SDS011;9947;57.722;12.012;2022-09-29T00:52:29;3.33;;;2.80;;
19599;SDS011;9947;57.722;12.012;2022-09-29T00:55:01;3.33;;;2.93;;
19599;SDS011;9947;57.722;12.012;2022-09-29T00:57:32;3.77;;;3.13;;
19599;SDS011;9947;57.722;12.012;2022-09-29T01:00:03;3.40;;;3.00;;
19599;SDS011;9947;57.722;12.012;2022-09-29T01:02:33;3.87;;;2.60;;
19599;SDS011;9947;57.722;12.012;2022-09-29T01:05:04;2.80;;;2.60;;
19599;SDS011;9947;57.722;12.012;2022-09-29T01:07:36;4.07;;;2.80;;
19599;SDS011;9947;57.722;12.012;2022-09-29T01:10:05;3.30;;;3.00;;
19599;SDS011;9947;57.722;12.012;2022-09-29T01:12:33;4.93;;;3.10;;
19599;SDS011;9947;57.722;12.012;2022-09-29T01:15:01;4.23;;;3.20;;
19599;SDS011;9947;57.722;12.012;2022-09-29T01:17:27;3.20;;;2.90;;
19599;SDS011;9947;57.722;12.012;2022-09-29T01:19:57;3.70;;;3.07;;
19599;SDS011;9947;57.722;12.012;2022-09-29T01:22:38;3.20;;;2.90;;
19599;SDS011;9947;57.722;12.012;2022-09-29T01:25:24;3.73;;;3.37;;
19599;SDS011;9947;57.722;12.012;2022-09-29T01:28:17;3.90;;;3.03;;
19599;SDS011;9947;57.722;12.012;2022-09-29T01:33:47;5.13;;;3.30;;
19599;SDS011;9947;57.722;12.012;2022-09-29T01:36:26;4.40;;;3.47;;
19599;SDS011;9947;57.722;12.012;2022-09-29T01:39:00;5.30;;;3.27;;
19599;SDS011;9947;57.722;12.012;2022-09-29T01:41:34;4.30;;;3.40;;
19599;SDS011;9947;57.722;12.012;2022-09-29T01:44:08;6.87;;;3.60;;
19599;SDS011;9947;57.722;12.012;2022-09-29T01:46:46;4.80;;;3.50;;
19599;SDS011;9947;57.722;12.012;2022-09-29T01:49:16;6.50;;;4.20;;
19599;SDS011;9947;57.722;12.012;2022-09-29T01:51:46;3.00;;;2.77;;
19599;SDS011;9947;57.722;12.012;2022-09-29T01:54:19;5.83;;;3.47;;
19599;SDS011;9947;57.722;12.012;2022-09-29T01:56:51;4.23;;;3.10;;
19599;SDS011;9947;57.722;12.012;2022-09-29T01:59:22;4.13;;;3.23;;
19599;SDS011;9947;57.722;12.012;2022-09-29T02:01:56;3.77;;;3.43;;
19599;SDS011;9947;57.722;12.012;2022-09-29T02:04:28;4.50;;;3.17;;
19599;SDS011;9947;57.722;12.012;2022-09-29T02:07:03;9.00;;;3.33;;
19599;SDS011;9947;57.722;12.012;2022-09-29T02:09:34;5.57;;;3.13;;
19599;SDS011;9947;57.722;12.012;2022-09-29T02:12:06;3.63;;;3.33;;
19599;SDS011;9947;57.722;12.012;2022-09-29T02:14:36;3.90;;;3.50;;
19599;SDS011;9947;57.722;12.012;2022-09-29T02:17:10;4.10;;;3.37;;
19599;SDS011;9947;57.722;12.012;2022-09-29T02:19:43;3.73;;;3.43;;
19599;SDS011;9947;57.722;12.012;2022-09-29T02:22:11;6.40;;;3.80;;
19599;SDS011;9947;57.722;12.012;2022-09-29T02:24:41;5.87;;;3.33;;
19599;SDS011;9947;57.722;12.012;2022-09-29T02:27:08;4.57;;;3.43;;
19599;SDS011;9947;57.722;12.012;2022-09-29T02:29:35;4.97;;;3.33;;
19599;SDS011;9947;57.722;12.012;2022-09-29T02:32:03;5.17;;;3.67;;
19599;SDS011;9947;57.722;12.012;2022-09-29T02:34:35;3.40;;;3.10;;
19599;SDS011;9947;57.722;12.012;2022-09-29T02:37:12;6.17;;;3.40;;
19599;SDS011;9947;57.722;12.012;2022-09-29T02:39:47;5.43;;;3.40;;
19599;SDS011;9947;57.722;12.012;2022-09-29T02:42:23;3.80;;;3.50;;
19599;SDS011;9947;57.722;12.012;2022-09-29T02:44:59;4.67;;;3.53;;
19599;SDS011;9947;57.722;12.012;2022-09-29T02:47:44;8.33;;;3.30;;
19599;SDS011;9947;57.722;12.012;2022-09-29T02:50:33;4.27;;;3.37;;
19599;SDS011;9947;57.722;12.012;2022-09-29T02:53:11;3.80;;;3.40;;
19599;SDS011;9947;57.722;12.012;2022-09-29T02:55:48;4.77;;;3.40;;
19599;SDS011;9947;57.722;12.012;2022-09-29T02:58:25;5.60;;;3.37;;
19599;SDS011;9947;57.722;12.012;2022-09-29T03:00:58;4.20;;;3.50;;
19599;SDS011;9947;57.722;12.012;2022-09-29T03:03:25;4.10;;;3.43;;
19599;SDS011;9947;57.722;12.012;2022-09-29T03:05:53;5.73;;;3.97;;
19599;SDS011;9947;57.722;12.012;2022-09-29T03:08:20;4.40;;;3.60;;
19599;SDS011;9947;57.722;12.012;2022-09-29T03:10:46;7.50;;;3.60;;
19599;SDS011;9947;57.722;12.012;2022-09-29T03:13:13;4.03;;;3.30;;
19599;SDS011;9947;57.722;12.012;2022-09-29T03:15:40;3.63;;;3.30;;
19599;SDS011;9947;57.722;12.012;2022-09-29T03:18:07;5.90;;;3.50;;
19599;SDS011;9947;57.722;12.012;2022-09-29T03:20:34;5.93;;;3.70;;
19599;SDS011;9947;57.722;12.012;2022-09-29T03:23:02;4.93;;;3.73;;
19599;SDS011;9947;57.722;12.012;2022-09-29T03:25:29;4.93;;;3.43;;
19599;SDS011;9947;57.722;12.012;2022-09-29T03:27:56;5.37;;;3.63;;
19599;SDS011;9947;57.722;12.012;2022-09-29T03:30:23;7.80;;;3.70;;
19599;SDS011;9947;57.722;12.012;2022-09-29T03:32:50;7.17;;;3.60;;
19599;SDS011;9947;57.722;12.012;2022-09-29T03:35:16;5.23;;;3.60;;
19599;SDS011;9947;57.722;12.012;2022-09-29T03:37:43;4.57;;;3.40;;
19599;SDS011;9947;57.722;12.012;2022-09-29T03:40:11;4.63;;;3.63;;
19599;SDS011;9947;57.722;12.012;2022-09-29T03:42:38;6.70;;;3.60;;
19599;SDS011;9947;57.722;12.012;2022-09-29T03:45:06;3.53;;;3.13;;
19599;SDS011;9947;57.722;12.012;2022-09-29T03:47:33;4.83;;;3.30;;
19599;SDS011;9947;57.722;12.012;2022-09-29T03:50:00;4.60;;;3.90;;
19599;SDS011;9947;57.722;12.012;2022-09-29T03:52:26;6.57;;;3.20;;
19599;SDS011;9947;57.722;12.012;2022-09-29T03:54:53;5.23;;;3.50;;
19599;SDS011;9947;57.722;12.012;2022-09-29T03:57:21;4.53;;;3.40;;
19599;SDS011;9947;57.722;12.012;2022-09-29T03:59:48;4.90;;;3.47;;
19599;SDS011;9947;57.722;12.012;2022-09-29T04:02:15;3.50;;;3.20;;
19599;SDS011;9947;57.722;12.012;2022-09-29T04:04:43;5.80;;;3.83;;
19599;SDS011;9947;57.722;12.012;2022-09-29T04:07:10;4.37;;;3.30;;
19599;SDS011;9947;57.722;12.012;2022-09-29T04:09:37;5.33;;;4.03;;
19599;SDS011;9947;57.722;12.012;2022-09-29T04:12:04;4.97;;;3.40;;
19599;SDS011;9947;57.722;12.012;2022-09-29T04:14:32;3.97;;;3.63;;
19599;SDS011;9947;57.722;12.012;2022-09-29T04:16:59;3.90;;;3.50;;
19599;SDS011;9947;57.722;12.012;2022-09-29T04:19:26;5.80;;;4.10;;
19599;SDS011;9947;57.722;12.012;2022-09-29T04:21:52;3.53;;;3.20;;
19599;SDS011;9947;57.722;12.012;2022-09-29T04:24:19;3.80;;;3.50;;
19599;SDS011;9947;57.722;12.012;2022-09-29T04:26:46;5.17;;;3.60;;
19599;SDS011;9947;57.722;12.012;2022-09-29T04:29:13;4.33;;;3.50;;
19599;SDS011;9947;57.722;12.012;2022-09-29T04:31:41;6.67;;;3.90;;
19599;SDS011;9947;57.722;12.012;2022-09-29T04:34:07;5.90;;;3.83;;
19599;SDS011;9947;57.722;12.012;2022-09-29T04:36:34;9.13;;;3.90;;
19599;SDS011;9947;57.722;12.012;2022-09-29T04:39:01;3.70;;;3.30;;
19599;SDS011;9947;57.722;12.012;2022-09-29T04:41:28;6.00;;;4.00;;
19599;SDS011;9947;57.722;12.012;2022-09-29T04:43:57;4.47;;;3.80;;
19599;SDS011;9947;57.722;12.012;2022-09-29T04:46:24;7.40;;;4.20;;
19599;SDS011;9947;57.722;12.012;2022-09-29T04:48:52;4.67;;;3.57;;
19599;SDS011;9947;57.722;12.012;2022-09-29T04:51:19;4.27;;;3.87;;
19599;SDS011;9947;57.722;12.012;2022-09-29T04:53:46;4.90;;;3.63;;
19599;SDS011;9947;57.722;12.012;2022-09-29T04:56:12;7.03;;;4.00;;
19599;SDS011;9947;57.722;12.012;2022-09-29T04:58:39;5.97;;;3.60;;
19599;SDS011;9947;57.722;12.012;2022-09-29T05:01:07;6.13;;;3.80;;
19599;SDS011;9947;57.722;12.012;2022-09-29T05:03:36;7.00;;;3.73;;
19599;SDS011;9947;57.722;12.012;2022-09-29T05:06:05;4.37;;;3.73;;
19599;SDS011;9947;57.722;12.012;2022-09-29T05:08:32;8.07;;;4.40;;
19599;SDS011;9947;57.722;12.012;2022-09-29T05:11:01;5.27;;;4.10;;
19599;SDS011;9947;57.722;12.012;2022-09-29T05:13:30;4.93;;;3.63;;
19599;SDS011;9947;57.722;12.012;2022-09-29T05:15:57;6.13;;;4.13;;
19599;SDS011;9947;57.722;12.012;2022-09-29T05:18:24;5.50;;;4.20;;
19599;SDS011;9947;57.722;12.012;2022-09-29T05:20:51;5.27;;;4.10;;
19599;SDS011;9947;57.722;12.012;2022-09-29T05:23:19;6.13;;;4.20;;
19599;SDS011;9947;57.722;12.012;2022-09-29T05:25:46;8.73;;;4.20;;
19599;SDS011;9947;57.722;12.012;2022-09-29T05:28:13;4.63;;;3.73;;
19599;SDS011;9947;57.722;12.012;2022-09-29T05:30:40;5.73;;;3.93;;
19599;SDS011;9947;57.722;12.012;2022-09-29T05:33:07;7.50;;;4.60;;
19599;SDS011;9947;57.722;12.012;2022-09-29T05:35:34;9.00;;;5.37;;
19599;SDS011;9947;57.722;12.012;2022-09-29T05:38:01;5.27;;;3.73;;
19599;SDS011;9947;57.722;12.012;2022-09-29T05:40:29;9.83;;;4.30;;
19599;SDS011;9947;57.722;12.012;2022-09-29T05:42:57;6.17;;;4.20;;
19599;SDS011;9947;57.722;12.012;2022-09-29T05:45:25;5.40;;;4.13;;
19599;SDS011;9947;57.722;12.012;2022-09-29T05:47:54;5.93;;;3.77;;
19599;SDS011;9947;57.722;12.012;2022-09-29T05:50:21;6.53;;;4.30;;
19599;SDS011;9947;57.722;12.012;2022-09-29T05:52:48;5.60;;;3.80;;
19599;SDS011;9947;57.722;12.012;2022-09-29T05:55:17;6.63;;;3.90;;
19599;SDS011;9947;57.722;12.012;2022-09-29T05:57:47;5.70;;;4.03;;
19599;SDS011;9947;57.722;12.012;2022-09-29T06:00:16;5.63;;;4.27;;
19599;SDS011;9947;57.722;12.012;2022-09-29T06:02:43;8.37;;;4.00;;
19599;SDS011;9947;57.722;12.012;2022-09-29T06:05:09;6.30;;;3.87;;
19599;SDS011;9947;57.722;12.012;2022-09-29T06:07:36;5.43;;;4.17;;
19599;SDS011;9947;57.722;12.012;2022-09-29T06:10:04;6.70;;;5.27;;
19599;SDS011;9947;57.722;12.012;2022-09-29T06:12:32;8.33;;;4.60;;
19599;SDS011;9947;57.722;12.012;2022-09-29T06:15:03;7.80;;;4.30;;
19599;SDS011;9947;57.722;12.012;2022-09-29T06:17:31;8.87;;;5.63;;
19599;SDS011;9947;57.722;12.012;2022-09-29T06:20:00;4.73;;;4.13;;
19599;SDS011;9947;57.722;12.012;2022-09-29T06:22:27;6.63;;;4.03;;
19599;SDS011;9947;57.722;12.012;2022-09-29T06:24:53;11.27;;;4.33;;
19599;SDS011;9947;57.722;12.012;2022-09-29T06:27:20;6.73;;;4.80;;
19599;SDS011;9947;57.722;12.012;2022-09-29T06:29:48;6.63;;;4.77;;
19599;SDS011;9947;57.722;12.012;2022-09-29T06:32:17;6.43;;;4.13;;
19599;SDS011;9947;57.722;12.012;2022-09-29T06:34:44;6.37;;;4.30;;
19599;SDS011;9947;57.722;12.012;2022-09-29T06:37:28;7.77;;;4.20;;
19599;SDS011;9947;57.722;12.012;2022-09-29T06:40:03;5.57;;;3.90;;
19599;SDS011;9947;57.722;12.012;2022-09-29T06:42:32;6.77;;;3.70;;
19599;SDS011;9947;57.722;12.012;2022-09-29T06:44:59;5.07;;;4.50;;
19599;SDS011;9947;57.722;12.012;2022-09-29T06:47:27;5.03;;;4.03;;
19599;SDS011;9947;57.722;12.012;2022-09-29T06:49:54;4.43;;;3.97;;
19599;SDS011;9947;57.722;12.012;2022-09-29T06:52:21;4.40;;;3.90;;
19599;SDS011;9947;57.722;12.012;2022-09-29T06:54:47;6.17;;;3.90;;
19599;SDS011;9947;57.722;12.012;2022-09-29T06:57:14;9.40;;;3.97;;
19599;SDS011;9947;57.722;12.012;2022-09-29T06:59:42;9.47;;;4.50;;
19599;SDS011;9947;57.722;12.012;2022-09-29T07:02:09;6.07;;;4.20;;
19599;SDS011;9947;57.722;12.012;2022-09-29T07:04:38;7.50;;;3.70;;
19599;SDS011;9947;57.722;12.012;2022-09-29T07:07:05;8.07;;;3.47;;
19599;SDS011;9947;57.722;12.012;2022-09-29T07:09:31;5.93;;;4.10;;
19599;SDS011;9947;57.722;12.012;2022-09-29T07:11:58;6.17;;;3.87;;
19599;SDS011;9947;57.722;12.012;2022-09-29T07:14:25;4.33;;;3.80;;
19599;SDS011;9947;57.722;12.012;2022-09-29T07:16:52;5.07;;;3.30;;
19599;SDS011;9947;57.722;12.012;2022-09-29T07:19:19;4.37;;;3.23;;
19599;SDS011;9947;57.722;12.012;2022-09-29T07:21:47;6.73;;;3.70;;
19599;SDS011;9947;57.722;12.012;2022-09-29T07:24:14;5.50;;;3.70;;
19599;SDS011;9947;57.722;12.012;2022-09-29T07:26:41;6.17;;;3.57;;
19599;SDS011;9947;57.722;12.012;2022-09-29T07:29:08;3.67;;;3.10;;
19599;SDS011;9947;57.722;12.012;2022-09-29T07:31:35;5.23;;;3.10;;
19599;SDS011;9947;57.722;12.012;2022-09-29T07:34:01;5.87;;;3.70;;
19599;SDS011;9947;57.722;12.012;2022-09-29T07:36:28;5.93;;;3.43;;
19599;SDS011;9947;57.722;12.012;2022-09-29T07:38:56;5.53;;;3.67;;
19599;SDS011;9947;57.722;12.012;2022-09-29T07:41:23;5.57;;;3.40;;
19599;SDS011;9947;57.722;12.012;2022-09-29T07:43:50;4.60;;;3.13;;
19599;SDS011;9947;57.722;12.012;2022-09-29T07:46:17;5.80;;;3.60;;
19599;SDS011;9947;57.722;12.012;2022-09-29T07:48:44;4.13;;;3.27;;
19599;SDS011;9947;57.722;12.012;2022-09-29T07:51:12;3.57;;;3.10;;
19599;SDS011;9947;57.722;12.012;2022-09-29T07:53:40;4.13;;;3.30;;
19599;SDS011;9947;57.722;12.012;2022-09-29T07:56:09;3.63;;;3.03;;
19599;SDS011;9947;57.722;12.012;2022-09-29T07:58:37;4.33;;;3.30;;
19599;SDS011;9947;57.722;12.012;2022-09-29T08:01:04;4.23;;;3.20;;
19599;SDS011;9947;57.722;12.012;2022-09-29T08:03:34;5.57;;;3.37;;
19599;SDS011;9947;57.722;12.012;2022-09-29T08:06:03;4.57;;;3.20;;
19599;SDS011;9947;57.722;12.012;2022-09-29T08:08:30;3.97;;;3.07;;
19599;SDS011;9947;57.722;12.012;2022-09-29T08:11:00;5.97;;;3.37;;
19599;SDS011;9947;57.722;12.012;2022-09-29T08:13:29;5.47;;;3.23;;
19599;SDS011;9947;57.722;12.012;2022-09-29T08:15:57;3.67;;;3.27;;
19599;SDS011;9947;57.722;12.012;2022-09-29T08:18:24;8.00;;;3.70;;
19599;SDS011;9947;57.722;12.012;2022-09-29T08:20:51;3.80;;;2.80;;
19599;SDS011;9947;57.722;12.012;2022-09-29T08:23:19;3.97;;;3.00;;
19599;SDS011;9947;57.722;12.012;2022-09-29T08:25:47;4.97;;;2.90;;
19599;SDS011;9947;57.722;12.012;2022-09-29T08:28:14;4.00;;;3.10;;
19599;SDS011;9947;57.722;12.012;2022-09-29T08:30:42;3.27;;;2.93;;
19599;SDS011;9947;57.722;12.012;2022-09-29T08:33:09;5.30;;;3.30;;
19599;SDS011;9947;57.722;12.012;2022-09-29T08:35:39;9.30;;;3.50;;
19599;SDS011;9947;57.722;12.012;2022-09-29T08:38:06;8.00;;;3.30;;
19599;SDS011;9947;57.722;12.012;2022-09-29T08:40:32;4.90;;;3.10;;
19599;SDS011;9947;57.722;12.012;2022-09-29T08:43:02;3.20;;;2.90;;
19599;SDS011;9947;57.722;12.012;2022-09-29T08:45:39;5.10;;;3.50;;
19599;SDS011;9947;57.722;12.012;2022-09-29T08:48:12;5.80;;;3.17;;
19599;SDS011;9947;57.722;12.012;2022-09-29T08:50:43;5.73;;;3.10;;
19599;SDS011;9947;57.722;12.012;2022-09-29T08:53:15;4.40;;;3.27;;
19599;SDS011;9947;57.722;12.012;2022-09-29T08:55:46;4.47;;;3.10;;
19599;SDS011;9947;57.722;12.012;2022-09-29T08:58:20;3.70;;;3.03;;
19599;SDS011;9947;57.722;12.012;2022-09-29T09:00:50;4.03;;;3.00;;
19599;SDS011;9947;57.722;12.012;2022-09-29T09:03:29;3.10;;;2.80;;
19599;SDS011;9947;57.722;12.012;2022-09-29T09:06:18;3.70;;;2.90;;
19599;SDS011;9947;57.722;12.012;2022-09-29T09:09:08;6.90;;;3.80;;
19599;SDS011;9947;57.722;12.012;2022-09-29T09:11:47;4.07;;;3.40;;
19599;SDS011;9947;57.722;12.012;2022-09-29T09:14:28;4.77;;;3.03;;
19599;SDS011;9947;57.722;12.012;2022-09-29T09:17:12;3.27;;;2.97;;
19599;SDS011;9947;57.722;12.012;2022-09-29T09:22:46;2.80;;;2.50;;
19599;SDS011;9947;57.722;12.012;2022-09-29T09:25:23;3.17;;;2.73;;
19599;SDS011;9947;57.722;12.012;2022-09-29T09:27:59;3.10;;;2.57;;
19599;SDS011;9947;57.722;12.012;2022-09-29T09:30:30;4.40;;;2.83;;
19599;SDS011;9947;57.722;12.012;2022-09-29T09:33:06;7.33;;;3.20;;
19599;SDS011;9947;57.722;12.012;2022-09-29T09:35:43;6.90;;;3.03;;
19599;SDS011;9947;57.722;12.012;2022-09-29T09:38:14;2.97;;;2.77;;
19599;SDS011;9947;57.722;12.012;2022-09-29T09:40:45;3.30;;;2.80;;
19599;SDS011;9947;57.722;12.012;2022-09-29T09:43:15;3.27;;;2.73;;
19599;SDS011;9947;57.722;12.012;2022-09-29T09:45:46;3.47;;;2.50;;
19599;SDS011;9947;57.722;12.012;2022-09-29T09:48:20;3.73;;;3.27;;
19599;SDS011;9947;57.722;12.012;2022-09-29T09:50:56;4.77;;;2.80;;
19599;SDS011;9947;57.722;12.012;2022-09-29T09:53:26;5.90;;;3.30;;
19599;SDS011;9947;57.722;12.012;2022-09-29T09:56:01;6.20;;;2.70;;
19599;SDS011;9947;57.722;12.012;2022-09-29T10:01:25;3.43;;;2.70;;
19599;SDS011;9947;57.722;12.012;2022-09-29T10:03:52;3.97;;;2.77;;
19599;SDS011;9947;57.722;12.012;2022-09-29T10:06:21;5.60;;;2.67;;
19599;SDS011;9947;57.722;12.012;2022-09-29T10:08:48;5.57;;;2.80;;
19599;SDS011;9947;57.722;12.012;2022-09-29T10:11:22;9.20;;;2.60;;
19599;SDS011;9947;57.722;12.012;2022-09-29T10:13:54;6.10;;;2.80;;
19599;SDS011;9947;57.722;12.012;2022-09-29T10:16:24;3.10;;;2.80;;
19599;SDS011;9947;57.722;12.012;2022-09-29T10:18:55;3.10;;;2.77;;
19599;SDS011;9947;57.722;12.012;2022-09-29T10:21:33;2.70;;;2.43;;
19599;SDS011;9947;57.722;12.012;2022-09-29T10:24:02;5.00;;;2.93;;
19599;SDS011;9947;57.722;12.012;2022-09-29T10:26:32;4.57;;;2.93;;
19599;SDS011;9947;57.722;12.012;2022-09-29T10:29:02;3.07;;;2.70;;
19599;SDS011;9947;57.722;12.012;2022-09-29T10:31:50;3.53;;;2.90;;
19599;SDS011;9947;57.722;12.012;2022-09-29T10:34:24;4.50;;;2.90;;
19599;SDS011;9947;57.722;12.012;2022-09-29T10:36:55;4.67;;;2.87;;
19599;SDS011;9947;57.722;12.012;2022-09-29T10:39:40;4.77;;;2.70;;
19599;SDS011;9947;57.722;12.012;2022-09-29T10:42:14;4.03;;;2.80;;
19599;SDS011;9947;57.722;12.012;2022-09-29T10:44:48;3.43;;;2.80;;
19599;SDS011;9947;57.722;12.012;2022-09-29T10:47:19;3.17;;;2.87;;
19599;SDS011;9947;57.722;12.012;2022-09-29T10:49:47;6.63;;;2.97;;
19599;SDS011;9947;57.722;12.012;2022-09-29T10:52:21;3.70;;;2.67;;
19599;SDS011;9947;57.722;12.012;2022-09-29T10:54:54;3.17;;;2.60;;
19599;SDS011;9947;57.722;12.012;2022-09-29T10:57:23;4.60;;;2.50;;
19599;SDS011;9947;57.722;12.012;2022-09-29T10:59:52;7.57;;;3.30;;
19599;SDS011;9947;57.722;12.012;2022-09-29T11:02:22;4.30;;;2.70;;
19599;SDS011;9947;57.722;12.012;2022-09-29T11:04:52;3.43;;;2.57;;
19599;SDS011;9947;57.722;12.012;2022-09-29T11:07:22;4.77;;;2.40;;
19599;SDS011;9947;57.722;12.012;2022-09-29T11:09:52;4.37;;;2.53;;
19599;SDS011;9947;57.722;12.012;2022-09-29T11:12:30;9.17;;;4.00;;
19599;SDS011;9947;57.722;12.012;2022-09-29T11:14:59;3.77;;;2.23;;
19599;SDS011;9947;57.722;12.012;2022-09-29T11:17:27;5.07;;;2.23;;
19599;SDS011;9947;57.722;12.012;2022-09-29T11:19:56;4.43;;;2.57;;
19599;SDS011;9947;57.722;12.012;2022-09-29T11:22:35;2.53;;;2.33;;
19599;SDS011;9947;57.722;12.012;2022-09-29T11:25:43;2.63;;;2.43;;
19599;SDS011;9947;57.722;12.012;2022-09-29T11:28:37;5.13;;;2.47;;
19599;SDS011;9947;57.722;12.012;2022-09-29T11:31:20;2.97;;;2.57;;
19599;SDS011;9947;57.722;12.012;2022-09-29T11:34:02;3.67;;;2.70;;
19599;SDS011;9947;57.722;12.012;2022-09-29T11:36:41;3.47;;;2.30;;
19599;SDS011;9947;57.722;12.012;2022-09-29T11:39:24;4.10;;;2.50;;
19599;SDS011;9947;57.722;12.012;2022-09-29T11:42:05;3.17;;;2.40;;
19599;SDS011;9947;57.722;12.012;2022-09-29T11:44:59;4.60;;;2.60;;
19599;SDS011;9947;57.722;12.012;2022-09-29T11:47:33;3.67;;;2.47;;
19599;SDS011;9947;57.722;12.012;2022-09-29T11:50:18;5.10;;;2.43;;
19599;SDS011;9947;57.722;12.012;2022-09-29T11:52:55;6.03;;;2.50;;
19599;SDS011;9947;57.722;12.012;2022-09-29T11:55:48;2.60;;;2.40;;
19599;SDS011;9947;57.722;12.012;2022-09-29T11:58:25;5.03;;;3.10;;
19599;SDS011;9947;57.722;12.012;2022-09-29T12:01:05;4.07;;;2.60;;
19599;SDS011;9947;57.722;12.012;2022-09-29T12:03:42;3.23;;;2.40;;
19599;SDS011;9947;57.722;12.012;2022-09-29T12:12:31;2.93;;;2.70;;
19599;SDS011;9947;57.722;12.012;2022-09-29T12:15:11;2.87;;;2.67;;
19599;SDS011;9947;57.722;12.012;2022-09-29T12:17:51;3.30;;;2.70;;
19599;SDS011;9947;57.722;12.012;2022-09-29T12:20:23;3.30;;;2.63;;
19599;SDS011;9947;57.722;12.012;2022-09-29T12:22:52;3.40;;;2.73;;
19599;SDS011;9947;57.722;12.012;2022-09-29T12:25:22;3.47;;;2.67;;
19599;SDS011;9947;57.722;12.012;2022-09-29T12:27:53;3.50;;;2.70;;
19599;SDS011;9947;57.722;12.012;2022-09-29T12:30:24;4.90;;;3.00;;
19599;SDS011;9947;57.722;12.012;2022-09-29T12:32:55;2.73;;;2.50;;
19599;SDS011;9947;57.722;12.012;2022-09-29T12:35:29;4.60;;;2.70;;
19599;SDS011;9947;57.722;12.012;2022-09-29T12:38:05;3.03;;;2.47;;
19599;SDS011;9947;57.722;12.012;2022-09-29T12:40:42;3.53;;;2.50;;
19599;SDS011;9947;57.722;12.012;2022-09-29T12:43:16;5.60;;;2.40;;
19599;SDS011;9947;57.722;12.012;2022-09-29T12:45:50;2.77;;;2.40;;
19599;SDS011;9947;57.722;12.012;2022-09-29T12:48:25;3.90;;;2.60;;
19599;SDS011;9947;57.722;12.012;2022-09-29T12:51:01;2.60;;;2.40;;
19599;SDS011;9947;57.722;12.012;2022-09-29T12:53:36;2.70;;;2.50;;
19599;SDS011;9947;57.722;12.012;2022-09-29T12:56:09;3.67;;;2.70;;
19599;SDS011;9947;57.722;12.012;2022-09-29T12:58:47;2.50;;;2.30;;
19599;SDS011;9947;57.722;12.012;2022-09-29T13:01:20;4.00;;;2.67;;
19599;SDS011;9947;57.722;12.012;2022-09-29T13:03:57;3.77;;;2.30;;
19599;SDS011;9947;57.722;12.012;2022-09-29T13:07:08;5.70;;;2.80;;
19599;SDS011;9947;57.722;12.012;2022-09-29T13:09:58;3.33;;;2.60;;
19599;SDS011;9947;57.722;12.012;2022-09-29T13:12:57;3.07;;;2.77;;
19599;SDS011;9947;57.722;12.012;2022-09-29T13:15:43;5.93;;;2.70;;
19599;SDS011;9947;57.722;12.012;2022-09-29T13:18:42;3.87;;;3.10;;
19599;SDS011;9947;57.722;12.012;2022-09-29T13:21:28;3.63;;;2.53;;
19599;SDS011;9947;57.722;12.012;2022-09-29T13:24:07;3.03;;;2.70;;
19599;SDS011;9947;57.722;12.012;2022-09-29T13:29:40;2.77;;;2.50;;
19599;SDS011;9947;57.722;12.012;2022-09-29T13:32:12;3.23;;;2.40;;
19599;SDS011;9947;57.722;12.012;2022-09-29T13:34:44;4.90;;;2.37;;
19599;SDS011;9947;57.722;12.012;2022-09-29T13:37:14;3.57;;;2.43;;
19599;SDS011;9947;57.722;12.012;2022-09-29T13:39:49;2.90;;;2.70;;
19599;SDS011;9947;57.722;12.012;2022-09-29T13:45:15;4.03;;;2.60;;
19599;SDS011;9947;57.722;12.012;2022-09-29T13:48:09;2.60;;;2.40;;
19599;SDS011;9947;57.722;12.012;2022-09-29T13:54:12;2.60;;;2.40;;
19599;SDS011;9947;57.722;12.012;2022-09-29T13:57:03;4.60;;;2.73;;
19599;SDS011;9947;57.722;12.012;2022-09-29T14:03:02;2.80;;;2.60;;
19599;SDS011;9947;57.722;12.012;2022-09-29T14:05:52;2.80;;;2.60;;
19599;SDS011;9947;57.722;12.012;2022-09-29T14:08:26;3.03;;;2.67;;
19599;SDS011;9947;57.722;12.012;2022-09-29T14:11:02;2.57;;;2.37;;
19599;SDS011;9947;57.722;12.012;2022-09-29T14:13:39;4.43;;;2.67;;
19599;SDS011;9947;57.722;12.012;2022-09-29T14:16:23;4.23;;;2.37;;
19599;SDS011;9947;57.722;12.012;2022-09-29T14:18:58;2.93;;;2.40;;
19599;SDS011;9947;57.722;12.012;2022-09-29T14:21:45;2.63;;;2.43;;
19599;SDS011;9947;57.722;12.012;2022-09-29T14:30:13;2.80;;;2.60;;
19599;SDS011;9947;57.722;12.012;2022-09-29T14:32:51;2.77;;;2.43;;
19599;SDS011;9947;57.722;12.012;2022-09-29T14:35:26;2.57;;;2.37;;
19599;SDS011;9947;57.722;12.012;2022-09-29T14:38:00;2.63;;;2.40;;
19599;SDS011;9947;57.722;12.012;2022-09-29T14:40:31;3.00;;;2.47;;
19599;SDS011;9947;57.722;12.012;2022-09-29T14:43:04;4.20;;;2.57;;
19599;SDS011;9947;57.722;12.012;2022-09-29T14:45:40;4.93;;;2.53;;
19599;SDS011;9947;57.722;12.012;2022-09-29T14:48:54;3.37;;;2.60;;
19599;SDS011;9947;57.722;12.012;2022-09-29T14:51:53;2.47;;;2.27;;
19599;SDS011;9947;57.722;12.012;2022-09-29T14:54:36;3.03;;;2.60;;
19599;SDS011;9947;57.722;12.012;2022-09-29T14:57:24;3.03;;;2.67;;
19599;SDS011;9947;57.722;12.012;2022-09-29T15:00:04;2.60;;;2.30;;
19599;SDS011;9947;57.722;12.012;2022-09-29T15:02:39;5.03;;;2.70;;
19599;SDS011;9947;57.722;12.012;2022-09-29T15:05:13;3.20;;;2.90;;
19599;SDS011;9947;57.722;12.012;2022-09-29T15:07:50;3.53;;;3.10;;
19599;SDS011;9947;57.722;12.012;2022-09-29T15:10:21;3.27;;;2.60;;
19599;SDS011;9947;57.722;12.012;2022-09-29T15:12:51;2.90;;;2.27;;
19599;SDS011;9947;57.722;12.012;2022-09-29T15:15:31;3.40;;;3.10;;
19599;SDS011;9947;57.722;12.012;2022-09-29T15:18:05;2.30;;;2.10;;
19599;SDS011;9947;57.722;12.012;2022-09-29T15:20:49;2.57;;;2.37;;
19599;SDS011;9947;57.722;12.012;2022-09-29T15:23:35;2.60;;;2.40;;
19599;SDS011;9947;57.722;12.012;2022-09-29T15:26:28;3.70;;;2.50;;
19599;SDS011;9947;57.722;12.012;2022-09-29T15:28:57;2.83;;;2.57;;
19599;SDS011;9947;57.722;12.012;2022-09-29T15:31:26;4.00;;;2.60;;
19599;SDS011;9947;57.722;12.012;2022-09-29T15:34:08;2.57;;;2.30;;
19599;SDS011;9947;57.722;12.012;2022-09-29T15:36:45;2.60;;;2.40;;
19599;SDS011;9947;57.722;12.012;2022-09-29T15:39:24;2.63;;;2.43;;
19599;SDS011;9947;57.722;12.012;2022-09-29T15:42:11;3.50;;;2.20;;
19599;SDS011;9947;57.722;12.012;2022-09-29T15:44:43;2.80;;;2.23;;
19599;SDS011;9947;57.722;12.012;2022-09-29T15:47:19;2.20;;;2.10;;
19599;SDS011;9947;57.722;12.012;2022-09-29T15:49:48;3.27;;;2.20;;
19599;SDS011;9947;57.722;12.012;2022-09-29T15:52:16;2.47;;;2.27;;
19599;SDS011;9947;57.722;12.012;2022-09-29T15:54:52;3.70;;;2.80;;